Sunday, November 18, 2018, 2:30 PM GMT
Back to Local

CYTZ, Toronto Island Airport Automated Reporting Station

Location: , , Canada Lat: 43.633
Local Time: 2:30 PM GMT (14:30 GMT) Lon: -79.4
Time Zone: GMT Elev: 252 ft

Show me the last for .
Show Decoded

2018-11-18 14:00 METAR CYTZ 181400Z AUTO 20004KT 9SM OVC048 01/M07 A3032 RMK SLP272 =
2018-11-18 13:00 METAR CYTZ 181300Z AUTO 20005KT 9SM OVC050 01/M06 A3031 RMK SLP271 =
2018-11-18 12:00 METAR CYTZ 181200Z AUTO VRB02KT 9SM OVC050 M01/M06 A3032 RMK SLP272 =
2018-11-18 11:00 METAR CYTZ 181100Z AUTO 00000KT 9SM OVC050 M01/M06 A3032 RMK SLP273 =
2018-11-18 10:00 METAR CYTZ 181000Z AUTO 29006KT 9SM OVC050 M01/M06 A3033 RMK SLP275 =
2018-11-18 09:00 METAR CYTZ 180900Z AUTO 30003KT 280V360 9SM OVC055 M01/M05 A3033 RMK SLP275 =
2018-11-18 08:00 METAR CYTZ 180800Z AUTO 32006KT 9SM FEW055 BKN160 M02/M05 A3034 RMK SLP279 =
2018-11-18 07:00 METAR CYTZ 180700Z AUTO 31003KT 9SM CLR M01/M04 A3033 RMK SLP276 =
2018-11-18 06:00 METAR CYTZ 180600Z AUTO 27004KT 9SM FEW048 M01/M05 A3034 RMK SLP278 =
2018-11-18 05:00 METAR CYTZ 180500Z AUTO 28006KT 9SM CLR M02/M05 A3034 RMK SLP277 =
2018-11-18 04:00 METAR CYTZ 180400Z AUTO 27006KT 9SM BKN055 M01/M06 A3034 RMK SLP277 =
2018-11-18 03:00 METAR CYTZ 180300Z AUTO 29007KT 9SM FEW050 M01/M06 A3033 RMK SLP276 =
2018-11-18 02:00 METAR CYTZ 180200Z AUTO 27006KT 9SM OVC055 M01/M05 A3032 RMK SLP273 =
2018-11-18 01:00 METAR CYTZ 180100Z AUTO 27007KT 9SM CLR M01/M06 A3031 RMK SLP270 =
2018-11-18 00:00 METAR CYTZ 180000Z AUTO 28008KT 9SM CLR 01/M06 A3031 RMK SLP268 =
2018-11-17 23:00 METAR CYTZ 172300Z AUTO 28010KT 9SM BKN060 01/M07 A3028 RMK SLP258 =
2018-11-17 22:00 METAR CYTZ 172200Z AUTO 29013KT 9SM OVC060 02/M07 A3026 RMK SLP250 =
2018-11-17 21:00 METAR CYTZ 172100Z AUTO 33007KT 9SM OVC055 02/M05 A3023 RMK SLP243 =
2018-11-17 20:02 METAR CYTZ 172002Z AUTO 30009G15KT 280V350 9SM SCT038 BKN048 OVC055 02/M03 A3021
                 RMK SLP234 =
2018-11-17 20:00 METAR CYTZ 172000Z AUTO 31008G17KT 280V350 9SM -RA SCT040 BKN048 OVC055 02/M03
                 A3020 RMK SLP233 =
2018-11-17 19:48 METAR CYTZ 171948Z AUTO 33008G15KT 9SM -RA BKN040 OVC050 02/M03 A3020 RMK SLP233
                 =
2018-11-17 19:40 METAR CYTZ 171940Z AUTO 32009G17KT 9SM BKN038 OVC048 02/M03 A3020 RMK SLP232 =
2018-11-17 19:30 METAR CYTZ 171930Z AUTO 34008G15KT 9SM -RA BKN041 OVC048 02/M02 A3020 RMK SLP230
                 =
2018-11-17 19:00 METAR CYTZ 171900Z AUTO 28014KT 9SM SCT035 OVC050 03/M03 A3018 RMK SLP224 =
2018-11-17 18:00 METAR CYTZ 171800Z AUTO 26014G19KT 9SM FEW034 OVC050 04/M03 A3016 RMK SLP218 =
2018-11-17 17:00 METAR CYTZ 171700Z AUTO 25015G23KT 9SM OVC048 03/M02 A3016 RMK SLP217 =
2018-11-17 16:00 METAR CYTZ 171600Z AUTO 28016G22KT 9SM OVC037 03/M03 A3017 RMK SLP220 =
2018-11-17 15:00 METAR CYTZ 171500Z AUTO 26017KT 9SM OVC043 03/M03 A3016 RMK SLP217 =

Support USWX by starting your Amazon purchase here.